createdAt,value
2019-02-27T00:00:58.106Z,9.20
2019-02-27T00:01:58.115Z,9.80
2019-02-27T00:02:58.095Z,9.60
2019-02-27T00:03:59.811Z,9.50
2019-02-27T00:04:58.083Z,9.70
2019-02-27T00:05:58.055Z,9.40
2019-02-27T00:06:58.073Z,9.40
2019-02-27T00:07:58.050Z,9.10
2019-02-27T00:09:00.494Z,9.50
2019-02-27T00:09:58.007Z,9.30
2019-02-27T00:10:58.026Z,9.20
2019-02-27T00:11:57.998Z,9.30
2019-02-27T00:12:57.983Z,9.40
2019-02-27T00:13:58.562Z,9.70
2019-02-27T00:14:57.956Z,9.60
2019-02-27T00:15:57.960Z,9.40
2019-02-27T00:16:57.933Z,9.20
2019-02-27T00:17:57.927Z,9.30
2019-02-27T00:18:58.911Z,9.20
2019-02-27T00:19:57.939Z,9.10
2019-02-27T00:20:57.893Z,9.20
2019-02-27T00:21:57.953Z,9.30
2019-02-27T00:22:57.872Z,9.70
2019-02-27T00:23:57.875Z,9.60
2019-02-27T00:24:57.905Z,9.90
2019-02-27T00:25:57.871Z,9.40
2019-02-27T00:26:57.841Z,9.20
2019-02-27T00:27:57.867Z,9.80
2019-02-27T00:28:57.845Z,9.60
2019-02-27T00:29:59.434Z,9.80
2019-02-27T00:30:58.777Z,10.20
2019-02-27T00:31:57.764Z,9.90
2019-02-27T00:32:57.833Z,9.40
2019-02-27T00:33:59.940Z,9.40
2019-02-27T00:34:57.746Z,10.00
2019-02-27T00:35:57.737Z,9.80
2019-02-27T00:36:57.704Z,9.90
2019-02-27T00:37:57.715Z,10.30
2019-02-27T00:38:58.467Z,10.20
2019-02-27T00:39:57.702Z,10.20
2019-02-27T00:40:57.678Z,10.20
2019-02-27T00:41:57.664Z,9.80
2019-02-27T00:42:57.642Z,9.80
2019-02-27T00:44:01.076Z,10.30
2019-02-27T00:44:57.646Z,10.60
2019-02-27T00:45:57.639Z,10.30
2019-02-27T00:46:57.621Z,10.30
2019-02-27T00:47:57.591Z,10.50
2019-02-27T00:48:59.328Z,10.60
2019-02-27T00:49:57.579Z,10.40
2019-02-27T00:50:57.611Z,10.00
2019-02-27T00:51:57.549Z,10.80
2019-02-27T00:52:57.544Z,10.90
2019-02-27T00:53:58.320Z,11.00
2019-02-27T00:54:57.531Z,10.70
2019-02-27T00:55:57.557Z,10.60
2019-02-27T00:56:57.506Z,10.90
2019-02-27T00:57:57.492Z,10.20
2019-02-27T00:58:59.888Z,11.10
2019-02-27T00:59:57.460Z,11.30
2019-02-27T01:00:57.464Z,10.30
2019-02-27T01:01:57.454Z,10.90
2019-02-27T01:02:57.422Z,10.60
2019-02-27T01:04:01.046Z,11.00
2019-02-27T01:04:57.397Z,11.00
2019-02-27T01:05:57.392Z,10.80
2019-02-27T01:06:57.422Z,10.70
2019-02-27T01:07:57.365Z,10.80
2019-02-27T01:08:57.362Z,11.00
2019-02-27T01:09:57.347Z,10.70
2019-02-27T01:10:57.336Z,10.80
2019-02-27T01:11:57.365Z,10.90
2019-02-27T01:12:58.111Z,10.60
2019-02-27T01:13:57.296Z,10.70
2019-02-27T01:14:57.284Z,10.90
2019-02-27T01:15:57.296Z,10.90
2019-02-27T01:16:57.286Z,10.10
2019-02-27T01:17:57.963Z,10.60
2019-02-27T01:18:57.246Z,10.70
2019-02-27T01:19:57.235Z,10.60
2019-02-27T01:20:57.229Z,10.50
2019-02-27T01:21:57.217Z,10.30
2019-02-27T01:22:57.242Z,10.70
2019-02-27T01:23:57.202Z,10.00
2019-02-27T01:24:57.178Z,10.90
2019-02-27T01:25:57.198Z,10.30
2019-02-27T01:26:57.168Z,10.40
2019-02-27T01:27:57.176Z,10.60
2019-02-27T01:28:57.190Z,10.90
2019-02-27T01:29:57.134Z,11.30
2019-02-27T01:30:57.123Z,11.00
2019-02-27T01:31:57.621Z,10.60
2019-02-27T01:32:57.128Z,10.60
2019-02-27T01:33:57.094Z,10.40
2019-02-27T01:34:57.160Z,10.40
2019-02-27T01:35:57.979Z,10.40
2019-02-27T01:36:58.053Z,11.20
2019-02-27T01:37:57.051Z,10.70
2019-02-27T01:38:57.040Z,10.70
2019-02-27T01:39:57.030Z,10.60
2019-02-27T01:40:57.007Z,10.70
2019-02-27T01:41:57.940Z,10.80
2019-02-27T01:42:56.978Z,10.60
2019-02-27T01:43:57.064Z,11.00
2019-02-27T01:44:56.957Z,11.00
2019-02-27T01:45:56.945Z,10.80
2019-02-27T01:47:01.891Z,10.80
2019-02-27T01:47:57.952Z,10.30
2019-02-27T01:48:56.918Z,10.70
2019-02-27T01:49:56.899Z,10.30
2019-02-27T01:50:56.898Z,10.60
2019-02-27T01:51:59.203Z,10.80
2019-02-27T01:52:56.890Z,10.50
2019-02-27T01:53:56.855Z,10.90
2019-02-27T01:54:56.873Z,11.00
2019-02-27T01:55:57.002Z,11.00
2019-02-27T01:56:56.823Z,10.80
2019-02-27T01:57:56.824Z,10.50
2019-02-27T01:58:56.843Z,10.60
2019-02-27T01:59:56.804Z,10.60
2019-02-27T02:00:56.830Z,11.30
2019-02-27T02:01:57.520Z,10.50
2019-02-27T02:02:56.759Z,10.90
2019-02-27T02:03:56.756Z,10.80
2019-02-27T02:04:56.741Z,10.70
2019-02-27T02:05:58.815Z,10.80
2019-02-27T02:06:56.718Z,10.90
2019-02-27T02:07:56.714Z,10.50
2019-02-27T02:08:56.718Z,11.20
2019-02-27T02:09:56.683Z,11.50
2019-02-27T02:10:58.897Z,10.80
2019-02-27T02:11:56.683Z,10.60
2019-02-27T02:13:04.192Z,10.50
2019-02-27T02:13:56.658Z,11.00
2019-02-27T02:14:56.628Z,11.00
2019-02-27T02:15:58.097Z,10.80
2019-02-27T02:16:56.610Z,10.70
2019-02-27T02:17:56.589Z,11.10
2019-02-27T02:18:56.621Z,10.70
2019-02-27T02:19:56.581Z,10.60
2019-02-27T02:21:00.736Z,11.00
2019-02-27T02:21:57.553Z,10.30
2019-02-27T02:22:56.539Z,10.80
2019-02-27T02:23:56.521Z,10.90
2019-02-27T02:24:56.516Z,10.60
2019-02-27T02:25:56.524Z,10.50
2019-02-27T02:26:56.554Z,10.30
2019-02-27T02:27:56.500Z,10.80
2019-02-27T02:28:56.493Z,10.40
2019-02-27T02:29:56.467Z,10.80
2019-02-27T02:30:56.472Z,10.50
2019-02-27T02:31:56.460Z,10.70
2019-02-27T02:32:56.507Z,10.00
2019-02-27T02:33:56.417Z,10.40
2019-02-27T02:34:56.502Z,11.20
2019-02-27T02:35:56.401Z,10.90
2019-02-27T02:37:01.387Z,10.10
2019-02-27T02:37:57.377Z,10.10
2019-02-27T02:38:56.403Z,10.50
2019-02-27T02:39:56.365Z,10.80
2019-02-27T02:40:56.369Z,10.70
2019-02-27T02:41:56.378Z,10.70
2019-02-27T02:43:02.098Z,10.50
2019-02-27T02:43:57.315Z,11.40
2019-02-27T02:44:57.525Z,10.60
2019-02-27T02:45:56.293Z,10.70
2019-02-27T02:46:56.300Z,10.30
2019-02-27T02:47:56.850Z,10.30
2019-02-27T02:48:56.260Z,11.20
2019-02-27T02:49:56.254Z,10.80
2019-02-27T02:50:56.256Z,10.40
2019-02-27T02:51:56.231Z,10.90
2019-02-27T02:52:56.214Z,10.60
2019-02-27T02:54:00.534Z,10.10
2019-02-27T02:54:57.197Z,10.20
2019-02-27T02:55:56.206Z,10.80
2019-02-27T02:57:00.148Z,10.50
2019-02-27T02:57:57.146Z,9.80
2019-02-27T02:58:56.151Z,10.60
2019-02-27T02:59:59.457Z,9.80
2019-02-27T03:00:56.152Z,10.10
2019-02-27T03:01:56.123Z,10.50
2019-02-27T03:02:57.623Z,10.50
2019-02-27T03:03:56.097Z,10.70
2019-02-27T03:04:56.083Z,10.60
2019-02-27T03:05:59.764Z,11.00
2019-02-27T03:06:56.055Z,10.10
2019-02-27T03:07:56.036Z,10.00
2019-02-27T03:08:56.308Z,10.40
2019-02-27T03:09:56.063Z,9.90
2019-02-27T03:10:56.003Z,11.00
2019-02-27T03:11:55.996Z,10.40
2019-02-27T03:12:55.989Z,10.50
2019-02-27T03:13:55.983Z,10.70
2019-02-27T03:14:55.975Z,10.50
2019-02-27T03:15:55.958Z,10.40
2019-02-27T03:16:55.954Z,10.70
2019-02-27T03:17:55.933Z,10.40
2019-02-27T03:18:55.970Z,11.00
2019-02-27T03:19:55.910Z,10.70
2019-02-27T03:20:55.910Z,11.00
2019-02-27T03:21:55.893Z,11.00
2019-02-27T03:22:55.894Z,10.60
2019-02-27T03:23:55.863Z,10.80
2019-02-27T03:24:55.855Z,10.40
2019-02-27T03:25:55.853Z,10.60
2019-02-27T03:26:55.871Z,11.40
2019-02-27T03:27:55.822Z,10.60
2019-02-27T03:28:55.814Z,10.50
2019-02-27T03:29:55.799Z,10.60
2019-02-27T03:30:55.830Z,10.70
2019-02-27T03:31:59.811Z,10.70
2019-02-27T03:32:55.786Z,10.60
2019-02-27T03:34:05.626Z,10.40
2019-02-27T03:34:56.753Z,10.60
2019-02-27T03:35:55.731Z,10.60
2019-02-27T03:36:55.734Z,10.70
2019-02-27T03:37:55.723Z,11.00
2019-02-27T03:38:58.662Z,10.40
2019-02-27T03:39:55.685Z,10.70
2019-02-27T03:40:55.692Z,10.50
2019-02-27T03:41:59.439Z,10.60
2019-02-27T03:42:55.665Z,10.40
2019-02-27T03:43:55.649Z,10.80
2019-02-27T03:44:57.022Z,10.20
2019-02-27T03:45:55.619Z,10.40
2019-02-27T03:46:55.620Z,10.30
2019-02-27T03:47:55.604Z,11.00
2019-02-27T03:48:55.592Z,10.40
2019-02-27T03:49:55.592Z,11.10
2019-02-27T03:50:55.564Z,10.90
2019-02-27T03:51:59.910Z,10.50
2019-02-27T03:52:55.558Z,10.70
2019-02-27T03:53:55.537Z,10.80
2019-02-27T03:54:58.077Z,10.90
2019-02-27T03:55:55.577Z,10.90
2019-02-27T03:56:55.515Z,11.10
2019-02-27T03:57:56.134Z,10.80
2019-02-27T03:58:55.480Z,10.70
2019-02-27T03:59:55.479Z,10.60
2019-02-27T04:00:55.467Z,11.00
2019-02-27T04:01:55.444Z,10.50
2019-02-27T04:02:55.454Z,10.80
2019-02-27T04:03:55.500Z,10.90
2019-02-27T04:04:55.439Z,10.50
2019-02-27T04:05:55.412Z,10.90
2019-02-27T04:06:56.299Z,10.80
2019-02-27T04:07:55.396Z,10.60
2019-02-27T04:08:55.386Z,10.80
2019-02-27T04:09:56.404Z,10.50
2019-02-27T04:10:55.355Z,10.60
2019-02-27T04:11:55.338Z,10.40
2019-02-27T04:12:55.326Z,10.70
2019-02-27T04:13:55.331Z,10.70
2019-02-27T04:14:55.301Z,10.90
2019-02-27T04:15:55.321Z,10.40
2019-02-27T04:16:55.297Z,10.40
2019-02-27T04:17:55.269Z,10.90
2019-02-27T04:18:55.295Z,11.20
2019-02-27T04:19:55.252Z,10.90
2019-02-27T04:20:55.242Z,10.70
2019-02-27T04:22:00.502Z,10.90
2019-02-27T04:22:56.214Z,11.60
2019-02-27T04:23:55.247Z,11.00
2019-02-27T04:24:56.907Z,11.00
2019-02-27T04:25:55.191Z,11.10
2019-02-27T04:26:55.191Z,10.50
2019-02-27T04:27:56.208Z,10.90
2019-02-27T04:28:55.150Z,12.20
2019-02-27T04:29:55.570Z,11.50
2019-02-27T04:30:55.131Z,11.50
2019-02-27T04:31:55.127Z,12.00
2019-02-27T04:32:55.108Z,12.30
2019-02-27T04:33:59.853Z,12.50
2019-02-27T04:34:56.121Z,12.30
2019-02-27T04:35:55.074Z,12.80
2019-02-27T04:36:55.064Z,12.00
2019-02-27T04:37:55.055Z,12.20
2019-02-27T04:38:55.037Z,12.20
2019-02-27T04:39:55.081Z,11.70
2019-02-27T04:40:55.024Z,12.00
2019-02-27T04:41:54.998Z,12.20
2019-02-27T04:42:57.036Z,12.30
2019-02-27T04:43:54.996Z,11.90
2019-02-27T04:44:54.993Z,12.50
2019-02-27T04:45:54.979Z,12.90
2019-02-27T04:46:55.600Z,11.90
2019-02-27T04:47:54.933Z,12.80
2019-02-27T04:48:54.944Z,12.20
2019-02-27T04:49:54.923Z,12.10
2019-02-27T04:50:54.926Z,12.30
2019-02-27T04:51:54.891Z,12.70
2019-02-27T04:52:57.697Z,12.60
2019-02-27T04:53:54.881Z,12.00
2019-02-27T04:54:54.855Z,12.60
2019-02-27T04:55:54.861Z,12.20
2019-02-27T04:56:55.090Z,12.50
2019-02-27T04:57:54.831Z,12.50
2019-02-27T04:58:54.829Z,12.10
2019-02-27T04:59:54.813Z,12.00
2019-02-27T05:00:59.161Z,12.40
2019-02-27T05:01:54.829Z,12.20
2019-02-27T05:02:54.770Z,12.10
2019-02-27T05:03:54.756Z,12.00
2019-02-27T05:04:54.757Z,11.70
2019-02-27T05:05:54.745Z,11.60
2019-02-27T05:06:54.763Z,11.60
2019-02-27T05:07:54.963Z,11.40
2019-02-27T05:08:54.723Z,11.40
2019-02-27T05:09:54.698Z,12.20
2019-02-27T05:10:54.747Z,12.30
2019-02-27T05:11:54.702Z,12.00
2019-02-27T05:12:54.697Z,11.40
2019-02-27T05:13:54.869Z,11.60
2019-02-27T05:14:54.652Z,12.50
2019-02-27T05:15:54.644Z,12.00
2019-02-27T05:16:54.619Z,12.00
2019-02-27T05:17:55.613Z,12.00
2019-02-27T05:18:54.643Z,11.90
2019-02-27T05:19:54.586Z,12.10
2019-02-27T05:20:54.582Z,12.50
2019-02-27T05:21:54.594Z,11.90
2019-02-27T05:22:54.562Z,12.10
2019-02-27T05:23:54.539Z,12.10
2019-02-27T05:24:54.561Z,12.50
2019-02-27T05:25:54.515Z,13.00
2019-02-27T05:26:54.520Z,13.20
2019-02-27T05:27:54.526Z,12.90
2019-02-27T05:28:54.504Z,13.70
2019-02-27T05:29:54.470Z,13.50
2019-02-27T05:30:54.468Z,12.90
2019-02-27T05:31:54.448Z,12.80
2019-02-27T05:32:54.465Z,13.00
2019-02-27T05:33:54.464Z,12.80
2019-02-27T05:34:54.435Z,13.20
2019-02-27T05:35:56.957Z,13.30
2019-02-27T05:36:54.410Z,13.40
2019-02-27T05:37:54.397Z,14.10
2019-02-27T05:38:54.411Z,13.60
2019-02-27T05:39:54.376Z,13.00
2019-02-27T05:40:54.363Z,13.00
2019-02-27T05:41:54.346Z,13.70
2019-02-27T05:42:54.335Z,14.40
2019-02-27T05:43:54.339Z,16.60
2019-02-27T05:44:56.014Z,16.00
2019-02-27T05:45:54.308Z,16.50
2019-02-27T05:46:54.318Z,15.30
2019-02-27T05:47:54.293Z,16.00
2019-02-27T05:48:54.297Z,15.60
2019-02-27T05:49:54.287Z,16.90
2019-02-27T05:50:54.257Z,17.40
2019-02-27T05:51:54.232Z,20.10
2019-02-27T05:52:54.220Z,20.40
2019-02-27T05:53:56.146Z,19.70
2019-02-27T05:54:54.368Z,18.10
2019-02-27T05:55:54.199Z,17.20
2019-02-27T05:56:54.189Z,16.50
2019-02-27T05:57:54.172Z,15.90
2019-02-27T05:58:56.347Z,15.30
2019-02-27T05:59:54.179Z,15.20
2019-02-27T06:00:54.132Z,14.30
2019-02-27T06:01:54.127Z,15.50
2019-02-27T06:02:54.127Z,15.30
2019-02-27T06:03:54.103Z,14.90
2019-02-27T06:04:56.155Z,14.90
2019-02-27T06:05:54.101Z,14.40
2019-02-27T06:06:54.066Z,15.00
2019-02-27T06:07:54.083Z,14.70
2019-02-27T06:08:54.041Z,14.30
2019-02-27T06:09:54.071Z,14.70
2019-02-27T06:10:56.041Z,13.90
2019-02-27T06:11:54.004Z,14.40
2019-02-27T06:12:53.998Z,14.20
2019-02-27T06:13:53.990Z,13.90
2019-02-27T06:14:55.032Z,13.90
2019-02-27T06:15:53.992Z,14.20
2019-02-27T06:16:54.020Z,13.80
2019-02-27T06:17:53.939Z,14.00
2019-02-27T06:18:56.221Z,13.90
2019-02-27T06:19:53.947Z,13.70
2019-02-27T06:20:53.920Z,13.90
2019-02-27T06:21:56.075Z,13.80
2019-02-27T06:22:53.913Z,13.80
2019-02-27T06:23:53.892Z,13.80
2019-02-27T06:24:53.866Z,13.90
2019-02-27T06:25:59.060Z,14.10
2019-02-27T06:26:54.877Z,13.70
2019-02-27T06:27:53.855Z,14.50
2019-02-27T06:28:53.822Z,14.30
2019-02-27T06:29:56.613Z,14.30
2019-02-27T06:30:53.806Z,14.20
2019-02-27T06:31:53.800Z,14.10
2019-02-27T06:32:53.790Z,14.30
2019-02-27T06:33:53.766Z,14.40
2019-02-27T06:34:53.759Z,14.20
2019-02-27T06:35:53.798Z,14.20
2019-02-27T06:36:53.736Z,13.70
2019-02-27T06:37:53.726Z,13.60
2019-02-27T06:38:53.729Z,14.40
2019-02-27T06:39:54.231Z,13.90
2019-02-27T06:40:53.694Z,14.30
2019-02-27T06:41:53.682Z,13.80
2019-02-27T06:42:54.401Z,13.60
2019-02-27T06:43:53.657Z,13.90
2019-02-27T06:44:53.703Z,13.30
2019-02-27T06:45:54.323Z,13.60
2019-02-27T06:46:54.626Z,14.20
2019-02-27T06:47:53.627Z,14.40
2019-02-27T06:48:53.623Z,14.40
2019-02-27T06:49:53.592Z,14.20
2019-02-27T06:50:53.583Z,13.60
2019-02-27T06:51:53.570Z,14.20
2019-02-27T06:52:53.567Z,15.90
2019-02-27T06:53:53.552Z,15.70
2019-02-27T06:54:53.562Z,15.90
2019-02-27T06:55:53.521Z,17.30
2019-02-27T06:56:53.519Z,15.80
2019-02-27T06:57:53.522Z,16.00
2019-02-27T06:58:53.496Z,15.10
2019-02-27T06:59:53.512Z,15.70
2019-02-27T07:00:53.486Z,15.90
2019-02-27T07:01:53.461Z,16.40
2019-02-27T07:02:55.435Z,16.10
2019-02-27T07:03:53.449Z,15.90
2019-02-27T07:04:53.522Z,14.40
2019-02-27T07:05:53.425Z,14.00
2019-02-27T07:06:55.486Z,14.70
2019-02-27T07:07:53.423Z,14.50
2019-02-27T07:08:53.384Z,14.70
2019-02-27T07:09:53.378Z,14.40
2019-02-27T07:10:57.619Z,14.20
2019-02-27T07:11:54.358Z,13.90
2019-02-27T07:12:54.677Z,15.10
2019-02-27T07:13:53.372Z,15.00
2019-02-27T07:14:53.328Z,14.70
2019-02-27T07:15:53.317Z,14.30
2019-02-27T07:16:57.009Z,14.90
2019-02-27T07:17:53.287Z,15.30
2019-02-27T07:18:53.281Z,15.40
2019-02-27T07:19:53.284Z,15.60
2019-02-27T07:20:55.783Z,15.10
2019-02-27T07:21:53.254Z,15.50
2019-02-27T07:22:53.252Z,15.70
2019-02-27T07:23:57.590Z,16.10
2019-02-27T07:24:54.210Z,16.50
2019-02-27T07:25:53.211Z,15.20
2019-02-27T07:26:54.076Z,16.60
2019-02-27T07:27:53.170Z,16.00
2019-02-27T07:28:53.212Z,16.50
2019-02-27T07:29:53.171Z,16.90
2019-02-27T07:30:53.136Z,16.20
2019-02-27T07:31:53.159Z,17.20
2019-02-27T07:32:53.267Z,15.50
2019-02-27T07:33:53.152Z,15.20
2019-02-27T07:34:53.124Z,14.90
2019-02-27T07:35:53.084Z,15.50
2019-02-27T07:36:53.095Z,14.60
2019-02-27T07:37:53.063Z,13.90
2019-02-27T07:38:54.348Z,14.60
2019-02-27T07:39:53.060Z,13.90
2019-02-27T07:40:53.024Z,13.60
2019-02-27T07:41:53.017Z,13.10
2019-02-27T07:42:53.007Z,12.90
2019-02-27T07:43:53.012Z,12.90
2019-02-27T07:44:53.018Z,12.70
2019-02-27T07:45:54.323Z,12.80
2019-02-27T07:46:57.306Z,12.80
2019-02-27T07:47:53.952Z,12.80
2019-02-27T07:48:56.550Z,12.90
2019-02-27T07:49:52.936Z,13.30
2019-02-27T07:50:52.933Z,12.90
2019-02-27T07:51:57.140Z,13.60
2019-02-27T07:52:52.897Z,13.10
2019-02-27T07:53:53.828Z,12.50
2019-02-27T07:54:52.870Z,11.90
2019-02-27T07:55:52.878Z,12.30
2019-02-27T07:56:52.910Z,12.10
2019-02-27T07:57:52.848Z,12.90
2019-02-27T07:58:52.834Z,12.10
2019-02-27T07:59:52.878Z,12.60
2019-02-27T08:00:52.865Z,12.30
2019-02-27T08:01:52.804Z,12.00
2019-02-27T08:02:52.852Z,11.80
2019-02-27T08:03:52.773Z,12.10
2019-02-27T08:04:54.730Z,12.30
2019-02-27T08:05:52.782Z,12.80
2019-02-27T08:06:52.756Z,12.60
2019-02-27T08:07:52.735Z,12.50
2019-02-27T08:08:56.913Z,11.80
2019-02-27T08:09:52.705Z,12.40
2019-02-27T08:10:52.720Z,12.00
2019-02-27T08:11:52.693Z,12.30
2019-02-27T08:12:55.667Z,12.00
2019-02-27T08:13:52.701Z,12.50
2019-02-27T08:14:52.665Z,11.80
2019-02-27T08:15:52.655Z,11.60
2019-02-27T08:16:57.183Z,11.80
2019-02-27T08:17:57.499Z,11.90
2019-02-27T08:18:52.659Z,11.30
2019-02-27T08:19:52.623Z,12.60
2019-02-27T08:20:54.634Z,13.60
2019-02-27T08:21:52.583Z,12.10
2019-02-27T08:22:52.583Z,11.50
2019-02-27T08:23:52.557Z,12.00
2019-02-27T08:24:52.591Z,11.50
2019-02-27T08:25:52.537Z,11.20
2019-02-27T08:26:52.599Z,11.20
2019-02-27T08:27:54.116Z,10.80
2019-02-27T08:28:52.523Z,11.00
2019-02-27T08:29:52.540Z,12.80
2019-02-27T08:30:52.479Z,11.40
2019-02-27T08:31:52.474Z,11.20
2019-02-27T08:32:52.469Z,11.20
2019-02-27T08:33:52.448Z,11.20
2019-02-27T08:34:52.449Z,11.10
2019-02-27T08:35:52.417Z,11.60
2019-02-27T08:36:52.416Z,11.60
2019-02-27T08:38:01.877Z,12.30
2019-02-27T08:38:53.413Z,11.40
2019-02-27T08:39:52.377Z,11.20
2019-02-27T08:40:57.514Z,11.20
2019-02-27T08:41:53.357Z,11.00
2019-02-27T08:42:52.342Z,10.90
2019-02-27T08:43:52.330Z,10.20
2019-02-27T08:44:52.361Z,10.80
2019-02-27T08:45:52.327Z,10.90
2019-02-27T08:46:52.300Z,10.70
2019-02-27T08:47:52.287Z,11.20
2019-02-27T08:48:52.294Z,10.60
2019-02-27T08:49:54.889Z,10.90
2019-02-27T08:50:53.249Z,10.90
2019-02-27T08:51:52.252Z,11.00
2019-02-27T08:52:52.228Z,11.10
2019-02-27T08:53:52.224Z,10.80
2019-02-27T08:54:52.212Z,11.00
2019-02-27T08:55:52.209Z,10.10
2019-02-27T08:56:52.259Z,10.50
2019-02-27T08:57:55.991Z,11.00
2019-02-27T08:58:52.185Z,10.80
2019-02-27T08:59:52.192Z,10.30
2019-02-27T09:00:52.169Z,10.80
2019-02-27T09:01:55.238Z,10.30
2019-02-27T09:02:52.130Z,10.50
2019-02-27T09:03:52.147Z,10.90
2019-02-27T09:04:52.092Z,10.40
2019-02-27T09:05:53.700Z,10.70
2019-02-27T09:06:52.091Z,10.80
2019-02-27T09:07:52.067Z,10.30
2019-02-27T09:08:52.049Z,10.60
2019-02-27T09:09:52.381Z,10.70
2019-02-27T09:10:52.066Z,10.30
2019-02-27T09:11:52.088Z,10.00
2019-02-27T09:12:52.014Z,10.40
2019-02-27T09:13:51.997Z,10.00
2019-02-27T09:14:52.056Z,9.80
2019-02-27T09:15:51.988Z,10.30
2019-02-27T09:16:59.178Z,10.10
2019-02-27T09:17:51.987Z,10.20
2019-02-27T09:18:51.938Z,9.80
2019-02-27T09:19:51.935Z,10.20
2019-02-27T09:20:53.349Z,9.90
2019-02-27T09:21:51.918Z,9.60
2019-02-27T09:22:51.894Z,9.40
2019-02-27T09:23:51.884Z,9.10
2019-02-27T09:24:52.386Z,9.50
2019-02-27T09:25:57.204Z,9.40
2019-02-27T09:26:52.893Z,9.30
2019-02-27T09:27:51.845Z,9.30
2019-02-27T09:28:51.850Z,9.30
2019-02-27T09:29:52.301Z,9.60
2019-02-27T09:30:51.861Z,9.50
2019-02-27T09:31:51.802Z,9.60
2019-02-27T09:32:51.848Z,10.10
2019-02-27T09:33:53.429Z,9.70
2019-02-27T09:34:51.769Z,9.60
2019-02-27T09:35:51.749Z,9.70
2019-02-27T09:36:51.743Z,9.80
2019-02-27T09:37:52.029Z,9.70
2019-02-27T09:38:51.767Z,9.50
2019-02-27T09:39:51.715Z,9.80
2019-02-27T09:40:51.701Z,9.40
2019-02-27T09:41:51.696Z,9.20
2019-02-27T09:42:53.056Z,9.70
2019-02-27T09:43:51.696Z,9.40
2019-02-27T09:44:51.679Z,9.60
2019-02-27T09:45:51.660Z,9.40
2019-02-27T09:46:52.368Z,9.70
2019-02-27T09:47:51.643Z,9.50
2019-02-27T09:48:51.658Z,9.10
2019-02-27T09:49:51.623Z,10.00
2019-02-27T09:50:51.598Z,9.20
2019-02-27T09:51:55.887Z,9.40
2019-02-27T09:53:01.020Z,9.40
2019-02-27T09:53:51.565Z,9.90
2019-02-27T09:54:51.557Z,8.90
2019-02-27T09:55:54.348Z,9.40
2019-02-27T09:56:51.807Z,8.80
2019-02-27T09:57:51.522Z,9.30
2019-02-27T09:58:51.625Z,9.50
2019-02-27T09:59:53.665Z,9.80
2019-02-27T10:00:51.543Z,9.50
2019-02-27T10:01:51.471Z,9.60
2019-02-27T10:02:51.455Z,9.90
2019-02-27T10:03:52.020Z,9.70
2019-02-27T10:04:51.458Z,9.40
2019-02-27T10:05:51.486Z,9.60
2019-02-27T10:06:51.410Z,9.50
2019-02-27T10:07:52.076Z,9.50
2019-02-27T10:08:51.388Z,9.80
2019-02-27T10:09:51.410Z,9.40
2019-02-27T10:10:51.376Z,9.90
2019-02-27T10:11:52.258Z,9.50
2019-02-27T10:12:51.345Z,9.20
2019-02-27T10:13:51.340Z,8.80
2019-02-27T10:14:51.340Z,8.70
2019-02-27T10:15:51.315Z,9.10
2019-02-27T10:16:51.307Z,9.30
2019-02-27T10:17:51.292Z,9.10
2019-02-27T10:18:54.676Z,9.50
2019-02-27T10:19:51.289Z,9.30
2019-02-27T10:20:51.253Z,9.20
2019-02-27T10:21:51.262Z,9.60
2019-02-27T10:22:53.283Z,9.00
2019-02-27T10:23:51.217Z,9.10
2019-02-27T10:24:51.228Z,9.20
2019-02-27T10:25:51.208Z,9.30
2019-02-27T10:26:53.520Z,9.00
2019-02-27T10:27:51.195Z,9.30
2019-02-27T10:28:51.171Z,9.10
2019-02-27T10:29:51.154Z,9.20
2019-02-27T10:30:51.161Z,9.10
2019-02-27T10:31:51.137Z,8.90
2019-02-27T10:32:51.147Z,9.30
2019-02-27T10:33:51.119Z,9.50
2019-02-27T10:34:53.500Z,8.90
2019-02-27T10:35:51.111Z,9.20
2019-02-27T10:36:51.158Z,8.60
2019-02-27T10:37:54.198Z,8.80
2019-02-27T10:38:51.053Z,8.50
2019-02-27T10:39:51.063Z,8.20
2019-02-27T10:40:51.028Z,8.10
2019-02-27T10:41:51.635Z,7.80
2019-02-27T10:42:51.400Z,8.70
2019-02-27T10:43:51.029Z,8.50
2019-02-27T10:44:50.986Z,8.30
2019-02-27T10:45:50.981Z,8.10
2019-02-27T10:46:52.104Z,8.40
2019-02-27T10:47:50.953Z,7.70
2019-02-27T10:48:50.943Z,7.70
2019-02-27T10:49:50.940Z,7.40
2019-02-27T10:50:50.969Z,7.60
2019-02-27T10:51:50.910Z,7.80
2019-02-27T10:52:50.900Z,7.30
2019-02-27T10:53:50.885Z,7.40
2019-02-27T10:54:50.875Z,7.30
2019-02-27T10:55:50.875Z,7.10
2019-02-27T10:56:50.898Z,8.10
2019-02-27T10:57:50.837Z,7.60
2019-02-27T10:58:50.842Z,7.60
2019-02-27T10:59:50.830Z,8.00
2019-02-27T11:00:50.803Z,8.00
2019-02-27T11:01:50.791Z,7.30
2019-02-27T11:02:52.465Z,7.50
2019-02-27T11:03:50.766Z,7.90
2019-02-27T11:04:50.772Z,7.80
2019-02-27T11:05:54.168Z,7.50
2019-02-27T11:06:50.737Z,7.80
2019-02-27T11:07:53.056Z,7.60
2019-02-27T11:08:50.729Z,7.60
2019-02-27T11:09:50.742Z,7.60
2019-02-27T11:10:50.695Z,7.50
2019-02-27T11:11:53.739Z,7.20
2019-02-27T11:12:50.699Z,7.60
2019-02-27T11:13:52.131Z,7.30
2019-02-27T11:14:50.699Z,7.20
2019-02-27T11:15:50.633Z,7.60
2019-02-27T11:16:50.647Z,7.90
2019-02-27T11:17:50.628Z,7.40
2019-02-27T11:18:50.600Z,7.50
2019-02-27T11:19:50.593Z,7.30
2019-02-27T11:20:50.589Z,7.20
2019-02-27T11:21:50.594Z,7.10
2019-02-27T11:22:50.568Z,7.10
2019-02-27T11:23:50.594Z,7.30
2019-02-27T11:24:52.442Z,6.90
2019-02-27T11:25:50.541Z,7.50
2019-02-27T11:26:50.534Z,6.90
2019-02-27T11:27:50.529Z,7.60
2019-02-27T11:28:50.538Z,7.20
2019-02-27T11:29:50.488Z,7.30
2019-02-27T11:30:51.158Z,7.20
2019-02-27T11:31:50.459Z,7.30
2019-02-27T11:32:50.463Z,7.30
2019-02-27T11:33:50.433Z,7.60
2019-02-27T11:34:50.458Z,7.60
2019-02-27T11:35:50.420Z,7.70
2019-02-27T11:36:50.399Z,7.60
2019-02-27T11:37:50.399Z,7.30
2019-02-27T11:38:50.373Z,7.40
2019-02-27T11:39:50.366Z,7.10
2019-02-27T11:40:50.381Z,7.30
2019-02-27T11:41:50.384Z,7.50
2019-02-27T11:42:50.418Z,7.40
2019-02-27T11:43:50.330Z,7.50
2019-02-27T11:44:50.342Z,8.00
2019-02-27T11:45:50.299Z,7.30
2019-02-27T11:46:58.446Z,7.20
2019-02-27T11:47:51.313Z,7.50
2019-02-27T11:48:50.291Z,7.40
2019-02-27T11:49:50.272Z,7.30
2019-02-27T11:50:50.274Z,7.60
2019-02-27T11:51:50.641Z,7.40
2019-02-27T11:52:50.245Z,7.00
2019-02-27T11:53:50.208Z,7.20
2019-02-27T11:54:50.215Z,7.20
2019-02-27T11:55:50.226Z,6.80
2019-02-27T11:56:51.125Z,7.10
2019-02-27T11:57:51.159Z,6.70
2019-02-27T11:58:50.152Z,7.10
2019-02-27T11:59:50.145Z,6.80
2019-02-27T12:00:50.130Z,6.70
2019-02-27T12:01:50.145Z,6.80
2019-02-27T12:02:50.120Z,6.60
2019-02-27T12:03:50.095Z,6.50
2019-02-27T12:04:53.746Z,6.50
2019-02-27T12:05:51.136Z,6.50
2019-02-27T12:06:50.067Z,6.50
2019-02-27T12:07:51.269Z,6.10
2019-02-27T12:08:50.055Z,6.50
2019-02-27T12:09:50.030Z,6.30
2019-02-27T12:10:50.027Z,7.00
2019-02-27T12:11:50.006Z,7.70
2019-02-27T12:12:49.999Z,7.00
2019-02-27T12:13:49.985Z,7.80
2019-02-27T12:14:50.048Z,8.00
2019-02-27T12:15:49.987Z,7.50
2019-02-27T12:16:51.767Z,7.50
2019-02-27T12:17:49.949Z,7.90
2019-02-27T12:18:49.936Z,8.30
2019-02-27T12:19:49.919Z,8.30
2019-02-27T12:20:53.163Z,8.30
2019-02-27T12:21:49.975Z,8.10
2019-02-27T12:22:49.888Z,7.80
2019-02-27T12:23:49.870Z,7.50
2019-02-27T12:24:50.327Z,7.30
2019-02-27T12:25:49.973Z,7.70
2019-02-27T12:26:49.839Z,7.70
2019-02-27T12:27:50.006Z,8.10
2019-02-27T12:28:52.515Z,8.20
2019-02-27T12:29:49.803Z,7.20
2019-02-27T12:30:49.871Z,6.90
2019-02-27T12:31:49.794Z,7.00
2019-02-27T12:32:49.799Z,6.70
2019-02-27T12:33:49.764Z,7.50
2019-02-27T12:34:49.784Z,7.70
2019-02-27T12:35:49.776Z,7.90
2019-02-27T12:36:49.908Z,7.90
2019-02-27T12:37:49.748Z,7.60
2019-02-27T12:38:49.704Z,7.70
2019-02-27T12:39:50.238Z,7.70
2019-02-27T12:40:49.708Z,7.70
2019-02-27T12:41:49.696Z,8.00
2019-02-27T12:42:49.863Z,7.70
2019-02-27T12:43:52.707Z,7.40
2019-02-27T12:44:53.885Z,6.90
2019-02-27T12:45:49.643Z,6.90
2019-02-27T12:46:49.635Z,7.00
2019-02-27T12:47:49.616Z,7.30
2019-02-27T12:48:49.602Z,7.20
2019-02-27T12:49:51.540Z,6.90
2019-02-27T12:50:49.626Z,6.70
2019-02-27T12:51:49.574Z,6.80
2019-02-27T12:52:49.547Z,7.10
2019-02-27T12:53:54.402Z,6.90
2019-02-27T12:54:50.538Z,7.10
2019-02-27T12:55:49.518Z,6.70
2019-02-27T12:56:49.527Z,6.80
2019-02-27T12:57:52.195Z,6.90
2019-02-27T12:58:49.480Z,6.60
2019-02-27T12:59:49.480Z,6.60
2019-02-27T13:00:49.467Z,6.30
2019-02-27T13:01:51.617Z,6.30